Time;durP1;ratioP1;P1;durP2;ratioP2;P2;SDS_P1;SDS_P2;PMS_P1;PMS_P2;Temp;Humidity;BMP_temperature;BMP_pressure;BME280_temperature;BME280_humidity;BME280_pressure;Samples;Min_cycle;Max_cycle;Signal;HPM_P1;HPM_P2
2022/03/21 00:02:02;;;;;;;;;;;;;;;;;;4982496;28;1256;-69
2022/03/21 00:04:27;;;;;;;;;;;;;;;;;;4981080;28;1902;-70
2022/03/21 00:06:52;;;;;;;;;;;;;;;;;;4982538;28;1338;-70
2022/03/21 00:09:17;;;;;;;;;;;;;;;;;;4982395;28;1198;-70
2022/03/21 00:11:43;;;;;;;;;;;;;;;;;;4982584;28;1201;-70
2022/03/21 00:14:11;;;;;;;;;;;;;;;;;;4981893;28;1454;-70
2022/03/21 00:16:37;;;;;;;;;;;;;;;;;;4981802;28;1431;-70
2022/03/21 00:19:02;;;;;;;;;;;;;;;;;;4981448;28;1410;-70
2022/03/21 00:21:27;;;;;;;;;;;;;;;;;;4982128;28;1256;-69
2022/03/21 00:23:53;;;;;;;;;;;;;;;;;;4981771;28;2253;-69
2022/03/21 00:26:18;;;;;;;;;;;;;;;;;;4982037;28;1281;-69
2022/03/21 00:28:43;;;;;;;;;;;;;;;;;;4982127;28;1399;-70
2022/03/21 00:31:08;;;;;;;;;;;;;;;;;;4980929;28;1323;-69
2022/03/21 00:33:33;;;;;;;;;;;;;;;;;;4981236;28;1410;-69
2022/03/21 00:35:59;;;;;;;;;;;;;;;;;;4981366;28;1309;-69
2022/03/21 00:38:24;;;;;;;;;;;;;;;;;;4981428;28;1241;-69
2022/03/21 00:40:50;;;;;;;;;;;;;;;;;;4981663;28;1269;-69
2022/03/21 00:43:18;;;;;;;;;;;;;;;;;;4981828;28;1914;-69
2022/03/21 00:45:45;;;;;;;;;;;;;;;;;;4981175;28;1454;-69
2022/03/21 00:48:10;;;;;;;;;;;;;;;;;;4981364;28;1335;-69
2022/03/21 00:50:35;;;;;;;;;;;;;;;;;;4981679;28;1252;-69
2022/03/21 00:53:01;;;;;;;;;;;;;;;;;;4981486;28;1316;-70
2022/03/21 00:55:26;;;;;;;;;;;;;;;;;;4981468;28;1259;-69
2022/03/21 00:57:52;;;;;;;;;;;;;;;;;;4981395;28;1257;-70
2022/03/21 01:00:19;;;;;;;;;;;;;;;;;;4980419;28;1486;-70
2022/03/21 01:02:44;;;;;;;;;;;;;;;;;;4980262;28;1327;-70
2022/03/21 01:05:10;;;;;;;;;;;;;;;;;;4981062;28;1890;-70
2022/03/21 01:07:36;;;;;;;;;;;;;;;;;;4981462;28;1256;-69
2022/03/21 01:10:04;;;;;;;;;;;;;;;;;;4981197;28;1328;-69
2022/03/21 01:12:29;;;;;;;;;;;;;;;;;;4981858;28;1315;-69
2022/03/21 01:14:55;;;;;;;;;;;;;;;;;;4979550;28;1434;-69
2022/03/21 01:17:20;;;;;;;;;;;;;;;;;;4980986;28;1253;-69
2022/03/21 01:19:45;;;;;;;;;;;;;;;;;;4981047;28;1252;-69
2022/03/21 01:22:10;;;;;;;;;;;;;;;;;;4979724;28;1233;-69
2022/03/21 01:24:36;;;;;;;;;;;;;;;;;;4979340;28;1951;-69
2022/03/21 01:27:03;;;;;;;;;;;;;;;;;;4980443;28;1354;-68
2022/03/21 01:29:28;;;;;;;;;;;;;;;;;;4980150;28;1435;-70
2022/03/21 01:31:53;;;;;;;;;;;;;;;;;;4979690;28;1540;-70
2022/03/21 01:34:18;;;;;;;;;;;;;;;;;;4980868;28;1347;-70
2022/03/21 01:36:44;;;;;;;;;;;;;;;;;;4980620;28;1484;-70
2022/03/21 01:39:09;;;;;;;;;;;;;;;;;;4981026;28;1265;-69
2022/03/21 01:41:34;;;;;;;;;;;;;;;;;;4980813;28;1224;-70
2022/03/21 01:43:59;;;;;;;;;;;;;;;;;;4980158;28;1898;-69
2022/03/21 01:46:25;;;;;;;;;;;;;;;;;;4979371;28;1430;-70
2022/03/21 01:48:50;;;;;;;;;;;;;;;;;;4979870;28;1274;-70
2022/03/21 01:51:16;;;;;;;;;;;;;;;;;;4980749;28;1240;-70
2022/03/21 01:56:26;;;;;;;;;;;;;;;;;;4980679;28;1268;-70
2022/03/21 01:58:51;;;;;;;;;;;;;;;;;;4980284;28;1493;-70
2022/03/21 02:01:17;;;;;;;;;;;;;;;;;;4980515;28;1261;-70
2022/03/21 02:03:42;;;;;;;;;;;;;;;;;;4980242;28;1902;-70
2022/03/21 02:06:07;;;;;;;;;;;;;;;;;;4980383;28;1381;-70
2022/03/21 02:08:32;;;;;;;;;;;;;;;;;;4983813;28;1242;-69
2022/03/21 02:10:57;;;;;;;;;;;;;;;;;;4984107;28;1241;-70
2022/03/21 02:13:23;;;;;;;;;;;;;;;;;;4982019;28;1454;-69
2022/03/21 02:15:48;;;;;;;;;;;;;;;;;;4983418;28;1347;-69
2022/03/21 02:18:16;;;;;;;;;;;;;;;;;;4984246;28;1363;-69
2022/03/21 02:20:41;;;;;;;;;;;;;;;;;;4983667;28;1404;-69
2022/03/21 02:23:12;;;;;;;;;;;;;;;;;;4983492;28;1213;-70
2022/03/21 02:25:43;;;;;;;;;;;;;;;;;;4983324;28;1280;-70
2022/03/21 02:28:12;;;;;;;;;;;;;;;;;;4982272;28;1399;-70
2022/03/21 02:30:42;;;;;;;;;;;;;;;;;;4982563;28;1272;-69
2022/03/21 02:33:08;;;;;;;;;;;;;;;;;;4982858;28;1204;-70
2022/03/21 02:35:33;;;;;;;;;;;;;;;;;;4983335;28;1235;-69
2022/03/21 02:37:59;;;;;;;;;;;;;;;;;;4982387;28;1393;-69
2022/03/21 02:40:25;;;;;;;;;;;;;;;;;;4982322;28;1478;-69
2022/03/21 02:42:50;;;;;;;;;;;;;;;;;;4982553;28;1383;-69
2022/03/21 02:45:15;;;;;;;;;;;;;;;;;;4983130;28;1902;-69
2022/03/21 02:47:41;;;;;;;;;;;;;;;;;;4982691;28;1522;-69
2022/03/21 02:50:08;;;;;;;;;;;;;;;;;;4982771;28;1466;-69
2022/03/21 02:52:33;;;;;;;;;;;;;;;;;;4982620;28;1352;-70
2022/03/21 02:54:58;;;;;;;;;;;;;;;;;;4982972;28;1268;-69
2022/03/21 02:57:24;;;;;;;;;;;;;;;;;;4983477;28;1351;-69
2022/03/21 02:59:49;;;;;;;;;;;;;;;;;;4982649;28;1306;-69
2022/03/21 03:02:14;;;;;;;;;;;;;;;;;;4982506;28;1406;-69
2022/03/21 03:04:40;;;;;;;;;;;;;;;;;;4982765;28;1957;-70
2022/03/21 03:07:05;;;;;;;;;;;;;;;;;;4982538;28;1271;-70
2022/03/21 03:09:30;;;;;;;;;;;;;;;;;;4981776;28;1312;-69
2022/03/21 03:11:55;;;;;;;;;;;;;;;;;;4982077;28;1249;-70
2022/03/21 03:14:21;;;;;;;;;;;;;;;;;;4972143;28;1492;-69
2022/03/21 03:16:46;;;;;;;;;;;;;;;;;;4983058;28;1248;-69
2022/03/21 03:19:12;;;;;;;;;;;;;;;;;;4982483;28;1317;-69
2022/03/21 03:21:40;;;;;;;;;;;;;;;;;;4980314;28;1360;-69
2022/03/21 03:24:08;;;;;;;;;;;;;;;;;;4981873;28;1898;-69
2022/03/21 03:26:33;;;;;;;;;;;;;;;;;;4981697;28;1438;-69
2022/03/21 03:28:58;;;;;;;;;;;;;;;;;;4982272;28;1277;-70
2022/03/21 03:31:23;;;;;;;;;;;;;;;;;;4981977;28;1197;-70
2022/03/21 03:33:49;;;;;;;;;;;;;;;;;;4982245;28;1200;-70
2022/03/21 03:36:15;;;;;;;;;;;;;;;;;;4981178;28;1581;-70
2022/03/21 03:38:40;;;;;;;;;;;;;;;;;;4982152;28;1375;-70
2022/03/21 03:41:06;;;;;;;;;;;;;;;;;;4981051;28;1372;-70
2022/03/21 03:43:31;;;;;;;;;;;;;;;;;;4981773;28;1966;-70
2022/03/21 03:45:57;;;;;;;;;;;;;;;;;;4981673;28;1296;-70
2022/03/21 03:48:23;;;;;;;;;;;;;;;;;;4982249;28;1323;-71
2022/03/21 03:50:48;;;;;;;;;;;;;;;;;;4982336;28;1268;-70
2022/03/21 03:53:14;;;;;;;;;;;;;;;;;;4981745;28;1375;-71
2022/03/21 03:55:40;;;;;;;;;;;;;;;;;;4979929;28;1490;-71
2022/03/21 03:58:05;;;;;;;;;;;;;;;;;;4980407;28;1748;-71
2022/03/21 04:00:30;;;;;;;;;;;;;;;;;;4980483;28;1422;-71
2022/03/21 04:05:39;;;;;;;;;;;;;;;;;;4981140;28;1383;-71
2022/03/21 04:08:04;;;;;;;;;;;;;;;;;;4981138;28;1415;-71
2022/03/21 04:10:30;;;;;;;;;;;;;;;;;;4979553;28;1253;-71
2022/03/21 04:12:55;;;;;;;;;;;;;;;;;;4981360;28;1299;-71
2022/03/21 04:15:22;;;;;;;;;;;;;;;;;;4981574;28;1344;-70
2022/03/21 04:17:47;;;;;;;;;;;;;;;;;;4981511;28;1303;-70
2022/03/21 04:20:13;;;;;;;;;;;;;;;;;;4980879;28;1399;-70
2022/03/21 04:22:38;;;;;;;;;;;;;;;;;;4979880;28;1351;-70
2022/03/21 04:25:04;;;;;;;;;;;;;;;;;;4981020;28;1894;-70
2022/03/21 04:27:29;;;;;;;;;;;;;;;;;;4981864;28;1300;-71
2022/03/21 04:29:54;;;;;;;;;;;;;;;;;;4980668;28;1225;-71
2022/03/21 04:32:19;;;;;;;;;;;;;;;;;;4981134;28;1268;-71
2022/03/21 04:34:44;;;;;;;;;;;;;;;;;;4980610;28;1364;-71
2022/03/21 04:37:10;;;;;;;;;;;;;;;;;;4981253;28;1328;-71
2022/03/21 04:39:35;;;;;;;;;;;;;;;;;;4981307;28;1273;-71
2022/03/21 04:42:00;;;;;;;;;;;;;;;;;;4981505;28;1281;-71
2022/03/21 04:44:25;;;;;;;;;;;;;;;;;;4981900;28;1898;-71
2022/03/21 04:46:51;;;;;;;;;;;;;;;;;;4980301;28;1394;-70
2022/03/21 04:49:16;;;;;;;;;;;;;;;;;;4981660;28;1311;-71
2022/03/21 04:51:41;;;;;;;;;;;;;;;;;;4981773;28;1236;-71
2022/03/21 04:54:07;;;;;;;;;;;;;;;;;;4981246;28;1233;-70
2022/03/21 04:56:32;;;;;;;;;;;;;;;;;;4979873;28;1387;-70
2022/03/21 04:58:57;;;;;;;;;;;;;;;;;;4981315;28;1288;-71
2022/03/21 05:01:23;;;;;;;;;;;;;;;;;;4979760;28;1452;-71
2022/03/21 05:03:49;;;;;;;;;;;;;;;;;;4981744;28;1955;-71
2022/03/21 05:06:16;;;;;;;;;;;;;;;;;;4979553;28;1489;-70
2022/03/21 05:08:42;;;;;;;;;;;;;;;;;;4981545;28;1304;-71
2022/03/21 05:11:07;;;;;;;;;;;;;;;;;;4981821;28;1240;-71
2022/03/21 05:13:32;;;;;;;;;;;;;;;;;;4980508;28;1411;-71
2022/03/21 05:15:57;;;;;;;;;;;;;;;;;;4980109;28;1411;-71
2022/03/21 05:18:23;;;;;;;;;;;;;;;;;;4981460;28;1328;-71
2022/03/21 05:20:48;;;;;;;;;;;;;;;;;;4980619;28;1427;-71
2022/03/21 05:31:24;;;;;;;;;;;;;;;;;;4981077;28;1188;-71
2022/03/21 05:36:33;;;;;;;;;;;;;;;;;;4980440;28;1387;-71
2022/03/21 05:38:59;;;;;;;;;;;;;;;;;;4980938;28;1494;-69
2022/03/21 05:41:24;;;;;;;;;;;;;;;;;;4980682;28;1438;-70
2022/03/21 05:43:49;;;;;;;;;;;;;;;;;;4984996;28;1882;-70
2022/03/21 05:46:15;;;;;;;;;;;;;;;;;;4983090;28;1371;-70
2022/03/21 05:48:59;;;;;;;;;;;;;;;;;;4984011;28;1261;-70
2022/03/21 05:51:27;;;;;;;;;;;;;;;;;;4984320;28;1144;-69
2022/03/21 05:53:53;;;;;;;;;;;;;;;;;;4983782;28;1446;-70
2022/03/21 05:56:19;;;;;;;;;;;;;;;;;;4983912;28;1374;-69
2022/03/21 05:58:44;;;;;;;;;;;;;;;;;;4984834;28;1359;-69
2022/03/21 06:01:11;;;;;;;;;;;;;;;;;;4982197;28;1391;-69
2022/03/21 06:03:36;;;;;;;;;;;;;;;;;;4983489;28;1898;-69
2022/03/21 06:06:02;;;;;;;;;;;;;;;;;;4984003;28;1340;-69
2022/03/21 06:08:27;;;;;;;;;;;;;;;;;;4983084;28;1442;-70
2022/03/21 06:11:03;;;;;;;;;;;;;;;;;;4983786;28;1313;-70
2022/03/21 06:13:29;;;;;;;;;;;;;;;;;;4983645;28;1219;-70
2022/03/21 06:15:54;;;;;;;;;;;;;;;;;;4983305;28;1387;-70
2022/03/21 06:18:19;;;;;;;;;;;;;;;;;;4983171;28;1307;-70
2022/03/21 06:20:44;;;;;;;;;;;;;;;;;;4982015;28;1458;-70
2022/03/21 06:23:10;;;;;;;;;;;;;;;;;;4983820;28;1090;-70
2022/03/21 06:25:35;;;;;;;;;;;;;;;;;;4983315;28;2025;-70
2022/03/21 06:28:01;;;;;;;;;;;;;;;;;;4982898;28;1309;-72
2022/03/21 06:30:27;;;;;;;;;;;;;;;;;;4982380;28;1208;-71
2022/03/21 06:32:53;;;;;;;;;;;;;;;;;;4983590;28;1174;-71
2022/03/21 06:35:24;;;;;;;;;;;;;;;;;;4980215;28;1557;-66
2022/03/21 06:37:50;;;;;;;;;;;;;;;;;;4981847;28;1264;-67
2022/03/21 06:40:15;;;;;;;;;;;;;;;;;;4981280;28;1340;-67
2022/03/21 06:42:41;;;;;;;;;;;;;;;;;;4980726;28;1421;-67
2022/03/21 06:45:06;;;;;;;;;;;;;;;;;;4980728;28;1938;-68
2022/03/21 06:47:31;;;;;;;;;;;;;;;;;;4981970;28;1233;-68
2022/03/21 06:49:56;;;;;;;;;;;;;;;;;;4980660;28;1414;-68
2022/03/21 06:52:22;;;;;;;;;;;;;;;;;;4980864;28;1303;-69
2022/03/21 06:54:48;;;;;;;;;;;;;;;;;;4981596;28;1241;-70
2022/03/21 06:57:14;;;;;;;;;;;;;;;;;;4981385;28;1296;-69
2022/03/21 06:59:39;;;;;;;;;;;;;;;;;;4981429;28;1217;-69
2022/03/21 07:02:05;;;;;;;;;;;;;;;;;;4980588;28;1724;-69
2022/03/21 07:04:30;;;;;;;;;;;;;;;;;;4980604;28;1890;-69
2022/03/21 07:06:55;;;;;;;;;;;;;;;;;;4981208;28;1279;-67
2022/03/21 07:09:21;;;;;;;;;;;;;;;;;;4981577;28;1311;-69
2022/03/21 07:11:46;;;;;;;;;;;;;;;;;;4980079;28;1462;-67
2022/03/21 07:14:12;;;;;;;;;;;;;;;;;;4981997;28;1297;-69
2022/03/21 07:16:39;;;;;;;;;;;;;;;;;;4980664;28;1454;-68
2022/03/21 07:19:06;;;;;;;;;;;;;;;;;;4965765;28;1671;-69
2022/03/21 07:21:31;;;;;;;;;;;;;;;;;;4981275;28;1534;-68
2022/03/21 07:23:59;;;;;;;;;;;;;;;;;;4979469;28;1951;-68
2022/03/21 07:26:24;;;;;;;;;;;;;;;;;;4980962;28;1423;-68
2022/03/21 07:28:49;;;;;;;;;;;;;;;;;;4981925;28;1214;-69
2022/03/21 07:31:15;;;;;;;;;;;;;;;;;;4981488;28;1493;-69
2022/03/21 07:33:41;;;;;;;;;;;;;;;;;;4981154;28;1179;-68
2022/03/21 07:36:06;;;;;;;;;;;;;;;;;;4942624;28;1124815;-69
2022/03/21 07:38:32;;;;;;;;;;;;;;;;;;4982590;28;1264;-68
2022/03/21 07:40:57;;;;;;;;;;;;;;;;;;4982100;28;1431;-68
2022/03/21 07:43:22;;;;;;;;;;;;;;;;;;4981905;28;1229;-69
2022/03/21 07:48:32;;;;;;;;;;;;;;;;;;4981815;28;1399;-69
2022/03/21 07:50:57;;;;;;;;;;;;;;;;;;4981451;28;1355;-67
2022/03/21 07:53:23;;;;;;;;;;;;;;;;;;4981867;28;1274;-68
2022/03/21 07:55:48;;;;;;;;;;;;;;;;;;4980508;28;1493;-68
2022/03/21 07:58:13;;;;;;;;;;;;;;;;;;4982718;28;1457;-69
2022/03/21 08:00:41;;;;;;;;;;;;;;;;;;4980577;28;1509;-68
2022/03/21 08:03:09;;;;;;;;;;;;;;;;;;4980900;28;1391;-68
2022/03/21 08:05:34;;;;;;;;;;;;;;;;;;4976722;28;1997;-69
2022/03/21 08:07:59;;;;;;;;;;;;;;;;;;4981124;28;1402;-70
2022/03/21 08:10:24;;;;;;;;;;;;;;;;;;4980393;28;1376;-70
2022/03/21 08:12:50;;;;;;;;;;;;;;;;;;4982070;28;1265;-70
2022/03/21 08:15:17;;;;;;;;;;;;;;;;;;4981218;28;1278;-70
2022/03/21 08:17:56;;;;;;;;;;;;;;;;;;4981164;28;1238;-70
2022/03/21 08:20:21;;;;;;;;;;;;;;;;;;4979818;28;1391;-69
2022/03/21 08:22:47;;;;;;;;;;;;;;;;;;4981264;28;1438;-70
2022/03/21 08:25:13;;;;;;;;;;;;;;;;;;4981393;28;1961;-70
2022/03/21 08:27:38;;;;;;;;;;;;;;;;;;4981915;28;1241;-70
2022/03/21 08:30:04;;;;;;;;;;;;;;;;;;4980565;28;1359;-69
2022/03/21 08:32:29;;;;;;;;;;;;;;;;;;4981521;28;1319;-70
2022/03/21 08:34:54;;;;;;;;;;;;;;;;;;4981818;28;1257;-70
2022/03/21 08:37:21;;;;;;;;;;;;;;;;;;4980677;28;1323;-69
2022/03/21 08:39:46;;;;;;;;;;;;;;;;;;4981002;28;1177;-69
2022/03/21 08:42:11;;;;;;;;;;;;;;;;;;4980770;28;1461;-70
2022/03/21 08:44:39;;;;;;;;;;;;;;;;;;4981840;28;1914;-70
2022/03/21 08:47:04;;;;;;;;;;;;;;;;;;4981719;28;1350;-70
2022/03/21 08:49:33;;;;;;;;;;;;;;;;;;4981624;28;1261;-69
2022/03/21 08:51:59;;;;;;;;;;;;;;;;;;4979306;28;1434;-69
2022/03/21 08:54:24;;;;;;;;;;;;;;;;;;4981720;28;1213;-69
2022/03/21 08:56:49;;;;;;;;;;;;;;;;;;4979573;28;1489;-69
2022/03/21 08:59:15;;;;;;;;;;;;;;;;;;4981141;28;1327;-69
2022/03/21 09:01:40;;;;;;;;;;;;;;;;;;4981275;28;1347;-69
2022/03/21 09:04:05;;;;;;;;;;;;;;;;;;4981120;28;1969;-69
2022/03/21 09:06:31;;;;;;;;;;;;;;;;;;4980202;28;1332;-69
2022/03/21 09:08:56;;;;;;;;;;;;;;;;;;4980359;28;1391;-69
2022/03/21 09:11:21;;;;;;;;;;;;;;;;;;4980307;28;1251;-69
2022/03/21 09:13:47;;;;;;;;;;;;;;;;;;4981101;28;1209;-69
2022/03/21 09:16:13;;;;;;;;;;;;;;;;;;4979400;28;1418;-69
2022/03/21 09:18:39;;;;;;;;;;;;;;;;;;4979202;28;1340;-69
2022/03/21 09:21:05;;;;;;;;;;;;;;;;;;4980100;28;1403;-70
2022/03/21 09:23:30;;;;;;;;;;;;;;;;;;4977373;28;1965;-69
2022/03/21 09:25:55;;;;;;;;;;;;;;;;;;4978757;28;1366;-69
2022/03/21 09:28:21;;;;;;;;;;;;;;;;;;4980636;28;1320;-69
2022/03/21 09:30:47;;;;;;;;;;;;;;;;;;4979730;28;1399;-69
2022/03/21 09:33:12;;;;;;;;;;;;;;;;;;4981052;28;1260;-69
2022/03/21 09:35:37;;;;;;;;;;;;;;;;;;4980460;28;1307;-70
2022/03/21 09:38:03;;;;;;;;;;;;;;;;;;4978484;28;1406;-69
2022/03/21 09:40:28;;;;;;;;;;;;;;;;;;4979965;28;1183;-69
2022/03/21 09:42:54;;;;;;;;;;;;;;;;;;4977464;28;1586;-69
2022/03/21 09:45:19;;;;;;;;;;;;;;;;;;4978500;28;1954;-70
2022/03/21 09:50:33;;;;;;;;;;;;;;;;;;4980751;28;1074;-69
2022/03/21 09:52:59;;;;;;;;;;;;;;;;;;4979322;28;1252;-69
2022/03/21 09:55:24;;;;;;;;;;;;;;;;;;4978481;28;1496;-69
2022/03/21 09:57:49;;;;;;;;;;;;;;;;;;4980125;28;1323;-69
2022/03/21 10:00:15;;;;;;;;;;;;;;;;;;4979682;28;1498;-69
2022/03/21 10:02:41;;;;;;;;;;;;;;;;;;4979985;28;1328;-69
2022/03/21 10:05:06;;;;;;;;;;;;;;;;;;4978948;28;1942;-70
2022/03/21 10:07:31;;;;;;;;;;;;;;;;;;4978929;28;1410;-70
2022/03/21 10:10:12;;;;;;;;;;;;;;;;;;4979919;28;1327;-68
2022/03/21 10:12:37;;;;;;;;;;;;;;;;;;4979430;28;1236;-70
2022/03/21 10:15:06;;;;;;;;;;;;;;;;;;4980207;28;1189;-69
2022/03/21 10:17:32;;;;;;;;;;;;;;;;;;4980423;28;1446;-68
2022/03/21 10:19:57;;;;;;;;;;;;;;;;;;4980955;28;1347;-68
2022/03/21 10:22:34;;;;;;;;;;;;;;;;;;4979273;28;1459;-69
2022/03/21 10:25:02;;;;;;;;;;;;;;;;;;4980660;28;1894;-68
2022/03/21 10:27:27;;;;;;;;;;;;;;;;;;4980035;28;1446;-68
2022/03/21 10:29:54;;;;;;;;;;;;;;;;;;4984121;28;1355;-69
2022/03/21 10:32:37;;;;;;;;;;;;;;;;;;4980436;28;1491;-68
2022/03/21 10:35:03;;;;;;;;;;;;;;;;;;4981883;28;1398;-68
2022/03/21 10:37:39;;;;;;;;;;;;;;;;;;4984414;28;1695;-68
2022/03/21 10:40:07;;;;;;;;;;;;;;;;;;4983275;28;1224;-68
2022/03/21 10:42:33;;;;;;;;;;;;;;;;;;4982346;28;1359;-68
2022/03/21 10:45:02;;;;;;;;;;;;;;;;;;4983564;28;1891;-68
2022/03/21 10:47:27;;;;;;;;;;;;;;;;;;4984269;28;1193;-68
2022/03/21 10:50:00;;;;;;;;;;;;;;;;;;4983145;28;1276;-68
2022/03/21 10:52:25;;;;;;;;;;;;;;;;;;4982251;28;1230;-68
2022/03/21 10:54:50;;;;;;;;;;;;;;;;;;4982231;28;1506;-67
2022/03/21 10:57:26;;;;;;;;;;;;;;;;;;4983185;28;1292;-68
2022/03/21 10:59:52;;;;;;;;;;;;;;;;;;4983290;28;1292;-68
2022/03/21 11:02:17;;;;;;;;;;;;;;;;;;4983433;28;1241;-68
2022/03/21 11:04:44;;;;;;;;;;;;;;;;;;4982269;28;1971;-68
2022/03/21 11:07:12;;;;;;;;;;;;;;;;;;4980064;28;1459;-68
2022/03/21 11:09:39;;;;;;;;;;;;;;;;;;4983433;28;1193;-68
2022/03/21 11:12:07;;;;;;;;;;;;;;;;;;4983320;28;1094;-68
2022/03/21 11:14:33;;;;;;;;;;;;;;;;;;4983825;28;1209;-68
2022/03/21 11:16:58;;;;;;;;;;;;;;;;;;4982341;28;1415;-68
2022/03/21 11:19:24;;;;;;;;;;;;;;;;;;4981555;28;1438;-68
2022/03/21 11:21:49;;;;;;;;;;;;;;;;;;4982090;28;1473;-68
2022/03/21 11:24:15;;;;;;;;;;;;;;;;;;4981661;28;1911;-69
2022/03/21 11:26:52;;;;;;;;;;;;;;;;;;4982163;28;1358;-69
2022/03/21 11:29:17;;;;;;;;;;;;;;;;;;4981893;28;1230;-69
2022/03/21 11:31:53;;;;;;;;;;;;;;;;;;4982245;28;1526;-69
2022/03/21 11:34:24;;;;;;;;;;;;;;;;;;4982589;28;1224;-69
2022/03/21 11:36:51;;;;;;;;;;;;;;;;;;4979575;28;1454;-69
2022/03/21 11:39:16;;;;;;;;;;;;;;;;;;4981602;28;1205;-69
2022/03/21 11:41:55;;;;;;;;;;;;;;;;;;4982413;28;1265;-69
2022/03/21 11:44:20;;;;;;;;;;;;;;;;;;4981808;28;1902;-69
2022/03/21 11:46:47;;;;;;;;;;;;;;;;;;4982264;28;1279;-69
2022/03/21 11:49:22;;;;;;;;;;;;;;;;;;4982492;28;1261;-69
2022/03/21 11:51:56;;;;;;;;;;;;;;;;;;4979773;28;1399;-69
2022/03/21 11:54:25;;;;;;;;;;;;;;;;;;4980967;28;1490;-70
2022/03/21 11:56:53;;;;;;;;;;;;;;;;;;4982585;28;1355;-70
2022/03/21 11:59:34;;;;;;;;;;;;;;;;;;4981354;28;1486;-70
2022/03/21 12:02:25;;;;;;;;;;;;;;;;;;4981630;28;1298;-70
2022/03/21 12:04:57;;;;;;;;;;;;;;;;;;4981014;28;1898;-71
2022/03/21 12:07:25;;;;;;;;;;;;;;;;;;4982164;28;1241;-70
2022/03/21 12:09:51;;;;;;;;;;;;;;;;;;4982833;28;1268;-71
2022/03/21 12:12:17;;;;;;;;;;;;;;;;;;4982342;28;1640;-71
2022/03/21 12:14:46;;;;;;;;;;;;;;;;;;4982426;28;1323;-71
2022/03/21 12:17:11;;;;;;;;;;;;;;;;;;4981815;28;1304;-71
2022/03/21 12:22:29;;;;;;;;;;;;;;;;;;4981416;28;1174;-71
2022/03/21 12:24:55;;;;;;;;;;;;;;;;;;4982051;28;1895;-71
2022/03/21 12:27:31;;;;;;;;;;;;;;;;;;4981441;28;1287;-71
2022/03/21 12:30:16;;;;;;;;;;;;;;;;;;4981740;28;1253;-70
2022/03/21 12:33:00;;;;;;;;;;;;;;;;;;4981440;28;1482;-70
2022/03/21 12:35:48;;;;;;;;;;;;;;;;;;4978429;28;1449;-69
2022/03/21 12:38:21;;;;;;;;;;;;;;;;;;4983020;28;1677;-71
2022/03/21 12:40:46;;;;;;;;;;;;;;;;;;4981396;28;1230;-72
2022/03/21 12:43:12;;;;;;;;;;;;;;;;;;4982235;28;1281;-71
2022/03/21 12:45:37;;;;;;;;;;;;;;;;;;4981226;28;1887;-71
2022/03/21 12:48:05;;;;;;;;;;;;;;;;;;4981633;28;1446;-72
2022/03/21 12:50:31;;;;;;;;;;;;;;;;;;4980958;28;1181;-71
2022/03/21 12:52:57;;;;;;;;;;;;;;;;;;4983301;28;1494;-73
2022/03/21 12:55:23;;;;;;;;;;;;;;;;;;4984034;28;1324;-73
2022/03/21 12:57:59;;;;;;;;;;;;;;;;;;4984914;28;1410;-73
2022/03/21 13:00:26;;;;;;;;;;;;;;;;;;4984488;28;1454;-73
2022/03/21 13:02:56;;;;;;;;;;;;;;;;;;4985276;28;1340;-73
2022/03/21 13:10:54;;;;;;;;;;;;;;;;;;4985569;28;1018;-72
2022/03/21 13:13:20;;;;;;;;;;;;;;;;;;4983939;28;1493;-76
2022/03/21 13:15:45;;;;;;;;;;;;;;;;;;4985666;28;1259;-75
2022/03/21 13:18:10;;;;;;;;;;;;;;;;;;4985041;28;1336;-73
2022/03/21 13:20:40;;;;;;;;;;;;;;;;;;4965667;28;1542;-75
2022/03/21 13:23:06;;;;;;;;;;;;;;;;;;4980282;28;1716;-73
2022/03/21 13:25:35;;;;;;;;;;;;;;;;;;4982322;28;1957;-71
2022/03/21 13:28:10;;;;;;;;;;;;;;;;;;4981273;28;1245;-71
2022/03/21 13:30:35;;;;;;;;;;;;;;;;;;4981012;28;1242;-73
2022/03/21 13:33:01;;;;;;;;;;;;;;;;;;4980797;28;1490;-73
2022/03/21 13:35:26;;;;;;;;;;;;;;;;;;4979203;28;1980;-72
2022/03/21 13:37:58;;;;;;;;;;;;;;;;;;4979715;28;1410;-72
2022/03/21 13:40:27;;;;;;;;;;;;;;;;;;4978602;28;1359;-72
2022/03/21 13:42:53;;;;;;;;;;;;;;;;;;4979475;28;1473;-71
2022/03/21 13:45:18;;;;;;;;;;;;;;;;;;4978212;28;1902;-76
2022/03/21 13:47:50;;;;;;;;;;;;;;;;;;4980926;28;1262;-71
2022/03/21 13:50:16;;;;;;;;;;;;;;;;;;4980710;28;1700;-72
2022/03/21 13:52:45;;;;;;;;;;;;;;;;;;4981022;28;1274;-72
2022/03/21 13:55:30;;;;;;;;;;;;;;;;;;4980729;28;1362;-71
2022/03/21 13:57:55;;;;;;;;;;;;;;;;;;4979093;28;1349;-71
2022/03/21 14:00:25;;;;;;;;;;;;;;;;;;4979652;28;1545;-71
2022/03/21 14:02:51;;;;;;;;;;;;;;;;;;4980957;28;1335;-71
2022/03/21 14:05:26;;;;;;;;;;;;;;;;;;4982070;28;1971;-71
2022/03/21 14:08:07;;;;;;;;;;;;;;;;;;4981585;28;1368;-72
2022/03/21 14:10:37;;;;;;;;;;;;;;;;;;4983579;28;1454;-70
2022/03/21 14:13:02;;;;;;;;;;;;;;;;;;4984279;28;1257;-70
2022/03/21 14:15:28;;;;;;;;;;;;;;;;;;4984098;28;1420;-71
2022/03/21 14:17:53;;;;;;;;;;;;;;;;;;4983292;28;1367;-71
2022/03/21 14:20:18;;;;;;;;;;;;;;;;;;4985503;28;1635;-71
2022/03/21 14:22:45;;;;;;;;;;;;;;;;;;4987141;28;1399;-70
2022/03/21 14:27:54;;;;;;;;;;;;;;;;;;4986077;28;1156;-72
2022/03/21 14:30:20;;;;;;;;;;;;;;;;;;4986042;28;1350;-70
2022/03/21 14:32:46;;;;;;;;;;;;;;;;;;4988168;28;1192;-71
2022/03/21 14:35:11;;;;;;;;;;;;;;;;;;4988291;28;1251;-71
2022/03/21 14:37:36;;;;;;;;;;;;;;;;;;4987069;28;1519;-71
2022/03/21 14:40:01;;;;;;;;;;;;;;;;;;4985531;28;1332;-71
2022/03/21 14:42:26;;;;;;;;;;;;;;;;;;4986164;28;1295;-70
2022/03/21 14:44:52;;;;;;;;;;;;;;;;;;4986325;28;1973;-70
2022/03/21 14:47:17;;;;;;;;;;;;;;;;;;4985134;28;1414;-72
2022/03/21 14:49:42;;;;;;;;;;;;;;;;;;4987977;28;1288;-72
2022/03/21 14:52:08;;;;;;;;;;;;;;;;;;4986534;28;1454;-71
2022/03/21 14:54:33;;;;;;;;;;;;;;;;;;4987377;28;1501;-71
2022/03/21 14:56:59;;;;;;;;;;;;;;;;;;4984980;28;1490;-72
2022/03/21 14:59:24;;;;;;;;;;;;;;;;;;4987209;28;1522;-72
2022/03/21 15:01:50;;;;;;;;;;;;;;;;;;4986394;28;1351;-71
2022/03/21 15:04:15;;;;;;;;;;;;;;;;;;4988129;28;1930;-72
2022/03/21 15:06:40;;;;;;;;;;;;;;;;;;4985282;28;1374;-74
2022/03/21 15:09:05;;;;;;;;;;;;;;;;;;4987004;28;1679;-73
2022/03/21 15:11:31;;;;;;;;;;;;;;;;;;4985676;28;1446;-73
2022/03/21 15:13:56;;;;;;;;;;;;;;;;;;4985985;28;1379;-72
2022/03/21 15:16:22;;;;;;;;;;;;;;;;;;4986289;28;1562;-72
2022/03/21 15:18:47;;;;;;;;;;;;;;;;;;4986343;28;1367;-69
2022/03/21 15:21:12;;;;;;;;;;;;;;;;;;4986582;28;1312;-71
2022/03/21 15:23:38;;;;;;;;;;;;;;;;;;4985289;28;1482;-71
2022/03/21 15:26:04;;;;;;;;;;;;;;;;;;4980764;28;1948;-71
2022/03/21 15:28:29;;;;;;;;;;;;;;;;;;4982186;28;1407;-71
2022/03/21 15:30:54;;;;;;;;;;;;;;;;;;4983797;28;1285;-71
2022/03/21 15:33:19;;;;;;;;;;;;;;;;;;4984095;28;1174;-71
2022/03/21 15:35:45;;;;;;;;;;;;;;;;;;4983511;28;1351;-71
2022/03/21 15:43:20;;;;;;;;;;;;;;;;;;4981646;28;1423;-70
2022/03/21 15:45:45;;;;;;;;;;;;;;;;;;4983495;28;1898;-71
2022/03/21 15:48:10;;;;;;;;;;;;;;;;;;4983383;28;1312;-71
2022/03/21 15:50:37;;;;;;;;;;;;;;;;;;4983678;28;1304;-72
2022/03/21 15:53:04;;;;;;;;;;;;;;;;;;4982532;28;1406;-71
2022/03/21 15:55:30;;;;;;;;;;;;;;;;;;4981786;28;1493;-72
2022/03/21 15:57:58;;;;;;;;;;;;;;;;;;4982057;28;1260;-71
2022/03/21 16:00:26;;;;;;;;;;;;;;;;;;4983430;28;1323;-71
2022/03/21 16:02:53;;;;;;;;;;;;;;;;;;4982432;28;1391;-72
2022/03/21 16:05:18;;;;;;;;;;;;;;;;;;4983218;28;1958;-72
2022/03/21 16:07:44;;;;;;;;;;;;;;;;;;4983774;28;1378;-72
2022/03/21 16:10:11;;;;;;;;;;;;;;;;;;4981494;28;1356;-72
2022/03/21 16:12:38;;;;;;;;;;;;;;;;;;4982500;28;1441;-71
2022/03/21 16:15:04;;;;;;;;;;;;;;;;;;4982552;28;1387;-72
2022/03/21 16:17:30;;;;;;;;;;;;;;;;;;4982889;28;1347;-72
2022/03/21 16:19:55;;;;;;;;;;;;;;;;;;4983357;28;1244;-74
2022/03/21 16:22:20;;;;;;;;;;;;;;;;;;4980449;28;1545;-76
2022/03/21 16:24:45;;;;;;;;;;;;;;;;;;4983041;28;1895;-75
2022/03/21 16:27:11;;;;;;;;;;;;;;;;;;4979616;28;1541;-74
2022/03/21 16:29:36;;;;;;;;;;;;;;;;;;4979692;28;1787;-74
2022/03/21 16:32:09;;;;;;;;;;;;;;;;;;4982262;28;1342;-74
2022/03/21 16:34:34;;;;;;;;;;;;;;;;;;4980980;28;1454;-74
2022/03/21 16:37:00;;;;;;;;;;;;;;;;;;4982532;28;1390;-74
2022/03/21 16:39:25;;;;;;;;;;;;;;;;;;4983111;28;1332;-74
2022/03/21 16:41:50;;;;;;;;;;;;;;;;;;4981751;28;1351;-74
2022/03/21 16:44:15;;;;;;;;;;;;;;;;;;4981450;28;1973;-74
2022/03/21 16:46:41;;;;;;;;;;;;;;;;;;4981235;28;1485;-74
2022/03/21 16:49:06;;;;;;;;;;;;;;;;;;4982531;28;1221;-74
2022/03/21 16:51:31;;;;;;;;;;;;;;;;;;4983873;28;1386;-74
2022/03/21 16:53:58;;;;;;;;;;;;;;;;;;4983193;28;1209;-75
2022/03/21 16:56:24;;;;;;;;;;;;;;;;;;4981684;28;1553;-75
2022/03/21 16:58:49;;;;;;;;;;;;;;;;;;4982805;28;1114;-74
2022/03/21 17:01:15;;;;;;;;;;;;;;;;;;4982847;28;1368;-72
2022/03/21 17:03:42;;;;;;;;;;;;;;;;;;4983035;28;1308;-72
2022/03/21 17:06:08;;;;;;;;;;;;;;;;;;4980685;28;1903;-71
2022/03/21 17:08:34;;;;;;;;;;;;;;;;;;4981059;28;1434;-71
2022/03/21 17:10:59;;;;;;;;;;;;;;;;;;4980274;28;1395;-70
2022/03/21 17:13:25;;;;;;;;;;;;;;;;;;4981912;28;1471;-75
2022/03/21 17:15:50;;;;;;;;;;;;;;;;;;4981913;28;1256;-76
2022/03/21 17:23:41;;;;;;;;;;;;;;;;;;4981431;28;1351;-74
2022/03/21 17:26:06;;;;;;;;;;;;;;;;;;4981172;28;1973;-75
2022/03/21 17:28:32;;;;;;;;;;;;;;;;;;4981624;28;1317;-75
2022/03/21 17:30:57;;;;;;;;;;;;;;;;;;4982051;28;1240;-75
2022/03/21 17:33:23;;;;;;;;;;;;;;;;;;4979800;28;1298;-75
2022/03/21 17:35:50;;;;;;;;;;;;;;;;;;4981620;28;1377;-75
2022/03/21 17:38:16;;;;;;;;;;;;;;;;;;4983223;28;1174;-75
2022/03/21 17:40:41;;;;;;;;;;;;;;;;;;4984721;28;1324;-74
2022/03/21 17:43:07;;;;;;;;;;;;;;;;;;4983220;28;1589;-74